Almo, Idaho
Current Conditions -  °F | °C
As of 8:53 PM on Saturday 25 Oct 2014 (Local Time) from KBYI Reporting Station
Broken Clouds Broken Clouds  
Wind Chill: 17°   Ceiling: 11000
Heat Index: 17°   Visibility: 10mi
Dew Point:   Wind: 13mph
Humidity: 44%   Direction: 210°SSW
Pressure: 29.8"   Gusts: NA
Location:  42.1°N, 113.64°W
Report Text: KBYI 260253Z AUTO 21011KT 10SM FEW090 BKN110 17/04 A2980 RMK AO2 RAB30E40 PRESRR SLP070 P0000 60000 T01670044 55004
Loading
Personal Weather Stations






























Interactive Weather Map
Tropical Storm Tracking
New forecast layout! Learn more

10-Day Weather Forecast

Advertisements
Track Severe Weather on mobile